Pearl City, Texas
Current Conditions -  °F | °C
As of 9:51 PM on Wednesday 22 Oct 2014 (Local Time) from KVCT Reporting Station
Clear Clear  
Wind Chill: 69°   Ceiling: Unl
Heat Index: 69°   Visibility: 10mi
Dew Point: 61°   Wind: 6mph
Humidity: 75%   Direction: 110°ESE
Pressure: 30.08"   Gusts: NA
Location:  29.2421°N, 97.0692°W
Report Text: KVCT 230251Z AUTO 11005KT 10SM CLR 21/16 A3008 RMK AO2 SLP185 T02060161 51017
Loading
Personal Weather Stations






























Interactive Weather Map
Tropical Storm Tracking
New forecast layout! Learn more

10-Day Weather Forecast

Advertisements
Track Severe Weather on mobile